sensor_id;sensor_type;location;lat;lon;timestamp;P1;durP1;ratioP1;P2;durP2;ratioP2
45620;SDS011;31345;51.522;10.702;2023-08-31T00:00:28;6.60;;;3.10;;
45620;SDS011;31345;51.522;10.702;2023-08-31T00:03:00;5.93;;;2.85;;
45620;SDS011;31345;51.522;10.702;2023-08-31T00:05:36;4.30;;;3.38;;
45620;SDS011;31345;51.522;10.702;2023-08-31T00:08:11;4.93;;;3.38;;
45620;SDS011;31345;51.522;10.702;2023-08-31T00:13:16;5.90;;;3.17;;
45620;SDS011;31345;51.522;10.702;2023-08-31T00:15:48;5.82;;;3.47;;
45620;SDS011;31345;51.522;10.702;2023-08-31T00:18:21;4.20;;;3.20;;
45620;SDS011;31345;51.522;10.702;2023-08-31T00:20:53;5.90;;;3.40;;
45620;SDS011;31345;51.522;10.702;2023-08-31T00:23:26;4.57;;;3.17;;
45620;SDS011;31345;51.522;10.702;2023-08-31T00:26:01;4.30;;;3.35;;
45620;SDS011;31345;51.522;10.702;2023-08-31T00:28:34;5.78;;;2.70;;
45620;SDS011;31345;51.522;10.702;2023-08-31T00:31:07;4.88;;;3.05;;
45620;SDS011;31345;51.522;10.702;2023-08-31T00:33:40;6.05;;;3.25;;
45620;SDS011;31345;51.522;10.702;2023-08-31T00:36:12;7.18;;;3.42;;
45620;SDS011;31345;51.522;10.702;2023-08-31T00:38:46;4.57;;;3.47;;
45620;SDS011;31345;51.522;10.702;2023-08-31T00:41:19;6.80;;;3.08;;
45620;SDS011;31345;51.522;10.702;2023-08-31T00:43:55;5.47;;;3.42;;
45620;SDS011;31345;51.522;10.702;2023-08-31T00:46:28;5.43;;;3.88;;
45620;SDS011;31345;51.522;10.702;2023-08-31T00:49:02;5.75;;;4.05;;
45620;SDS011;31345;51.522;10.702;2023-08-31T00:51:32;4.97;;;3.15;;
45620;SDS011;31345;51.522;10.702;2023-08-31T00:54:05;5.43;;;3.85;;
45620;SDS011;31345;51.522;10.702;2023-08-31T00:56:39;4.45;;;3.60;;
45620;SDS011;31345;51.522;10.702;2023-08-31T00:59:13;5.95;;;3.70;;
45620;SDS011;31345;51.522;10.702;2023-08-31T01:10:14;5.60;;;4.28;;
45620;SDS011;31345;51.522;10.702;2023-08-31T01:12:55;6.50;;;4.28;;
45620;SDS011;31345;51.522;10.702;2023-08-31T01:15:35;5.00;;;4.05;;
45620;SDS011;31345;51.522;10.702;2023-08-31T01:18:08;7.35;;;5.07;;
45620;SDS011;31345;51.522;10.702;2023-08-31T01:20:42;8.85;;;5.00;;
45620;SDS011;31345;51.522;10.702;2023-08-31T01:23:19;7.88;;;5.72;;
45620;SDS011;31345;51.522;10.702;2023-08-31T01:25:55;10.35;;;6.07;;
45620;SDS011;31345;51.522;10.702;2023-08-31T01:28:28;8.82;;;5.55;;
45620;SDS011;31345;51.522;10.702;2023-08-31T01:31:03;8.30;;;6.15;;
45620;SDS011;31345;51.522;10.702;2023-08-31T01:33:36;9.90;;;6.25;;
45620;SDS011;31345;51.522;10.702;2023-08-31T01:36:04;8.48;;;5.55;;
45620;SDS011;31345;51.522;10.702;2023-08-31T01:38:47;8.70;;;5.95;;
45620;SDS011;31345;51.522;10.702;2023-08-31T01:41:26;8.93;;;6.57;;
45620;SDS011;31345;51.522;10.702;2023-08-31T01:44:03;10.32;;;7.13;;
45620;SDS011;31345;51.522;10.702;2023-08-31T01:46:37;11.38;;;7.20;;
45620;SDS011;31345;51.522;10.702;2023-08-31T01:49:10;9.85;;;7.57;;
45620;SDS011;31345;51.522;10.702;2023-08-31T01:51:43;9.30;;;6.68;;
45620;SDS011;31345;51.522;10.702;2023-08-31T01:54:16;9.63;;;6.40;;
45620;SDS011;31345;51.522;10.702;2023-08-31T01:56:50;9.25;;;6.30;;
45620;SDS011;31345;51.522;10.702;2023-08-31T01:59:23;12.48;;;7.30;;
45620;SDS011;31345;51.522;10.702;2023-08-31T02:01:56;9.48;;;7.45;;
45620;SDS011;31345;51.522;10.702;2023-08-31T02:04:29;9.90;;;7.57;;
45620;SDS011;31345;51.522;10.702;2023-08-31T02:07:02;9.45;;;7.15;;
45620;SDS011;31345;51.522;10.702;2023-08-31T02:09:35;11.43;;;8.20;;
45620;SDS011;31345;51.522;10.702;2023-08-31T02:12:10;14.43;;;8.50;;
45620;SDS011;31345;51.522;10.702;2023-08-31T02:14:43;12.82;;;8.05;;
45620;SDS011;31345;51.522;10.702;2023-08-31T02:17:16;11.30;;;8.52;;
45620;SDS011;31345;51.522;10.702;2023-08-31T02:19:49;11.80;;;8.35;;
45620;SDS011;31345;51.522;10.702;2023-08-31T02:22:22;11.02;;;8.50;;
45620;SDS011;31345;51.522;10.702;2023-08-31T02:24:54;12.10;;;8.10;;
45620;SDS011;31345;51.522;10.702;2023-08-31T02:27:28;10.90;;;7.68;;
45620;SDS011;31345;51.522;10.702;2023-08-31T02:30:01;12.32;;;8.75;;
45620;SDS011;31345;51.522;10.702;2023-08-31T02:32:35;12.25;;;8.10;;
45620;SDS011;31345;51.522;10.702;2023-08-31T02:35:08;9.15;;;6.82;;
45620;SDS011;31345;51.522;10.702;2023-08-31T02:37:38;10.48;;;7.80;;
45620;SDS011;31345;51.522;10.702;2023-08-31T02:40:11;12.85;;;8.05;;
45620;SDS011;31345;51.522;10.702;2023-08-31T02:42:45;11.88;;;8.68;;
45620;SDS011;31345;51.522;10.702;2023-08-31T02:45:19;12.10;;;7.50;;
45620;SDS011;31345;51.522;10.702;2023-08-31T02:47:52;9.93;;;7.50;;
45620;SDS011;31345;51.522;10.702;2023-08-31T02:50:24;10.13;;;7.13;;
45620;SDS011;31345;51.522;10.702;2023-08-31T02:52:57;9.93;;;7.38;;
45620;SDS011;31345;51.522;10.702;2023-08-31T02:55:31;11.75;;;7.80;;
45620;SDS011;31345;51.522;10.702;2023-08-31T02:58:06;10.30;;;7.00;;
45620;SDS011;31345;51.522;10.702;2023-08-31T03:00:38;16.25;;;7.22;;
45620;SDS011;31345;51.522;10.702;2023-08-31T03:03:09;9.70;;;7.00;;
45620;SDS011;31345;51.522;10.702;2023-08-31T03:05:43;9.40;;;7.05;;
45620;SDS011;31345;51.522;10.702;2023-08-31T03:08:16;8.88;;;6.80;;
45620;SDS011;31345;51.522;10.702;2023-08-31T03:10:49;8.52;;;6.80;;
45620;SDS011;31345;51.522;10.702;2023-08-31T03:13:23;14.57;;;7.55;;
45620;SDS011;31345;51.522;10.702;2023-08-31T03:15:56;7.72;;;6.57;;
45620;SDS011;31345;51.522;10.702;2023-08-31T03:18:24;9.55;;;7.05;;
45620;SDS011;31345;51.522;10.702;2023-08-31T03:20:57;10.15;;;6.82;;
45620;SDS011;31345;51.522;10.702;2023-08-31T03:23:29;10.95;;;7.43;;
45620;SDS011;31345;51.522;10.702;2023-08-31T03:26:06;11.13;;;7.40;;
45620;SDS011;31345;51.522;10.702;2023-08-31T03:28:40;10.55;;;7.60;;
45620;SDS011;31345;51.522;10.702;2023-08-31T03:31:13;15.45;;;8.20;;
45620;SDS011;31345;51.522;10.702;2023-08-31T03:33:47;12.55;;;7.43;;
45620;SDS011;31345;51.522;10.702;2023-08-31T03:36:19;13.43;;;8.60;;
45620;SDS011;31345;51.522;10.702;2023-08-31T03:38:52;10.55;;;8.25;;
45620;SDS011;31345;51.522;10.702;2023-08-31T03:41:24;15.45;;;8.23;;
45620;SDS011;31345;51.522;10.702;2023-08-31T03:43:58;10.45;;;8.88;;
45620;SDS011;31345;51.522;10.702;2023-08-31T03:46:31;16.70;;;8.45;;
45620;SDS011;31345;51.522;10.702;2023-08-31T03:49:04;11.88;;;8.55;;
45620;SDS011;31345;51.522;10.702;2023-08-31T03:51:37;9.75;;;7.38;;
45620;SDS011;31345;51.522;10.702;2023-08-31T03:54:10;14.20;;;8.60;;
45620;SDS011;31345;51.522;10.702;2023-08-31T03:56:44;12.65;;;8.27;;
45620;SDS011;31345;51.522;10.702;2023-08-31T03:59:19;12.70;;;8.05;;
45620;SDS011;31345;51.522;10.702;2023-08-31T04:01:51;12.35;;;8.63;;
45620;SDS011;31345;51.522;10.702;2023-08-31T04:04:24;10.38;;;8.35;;
45620;SDS011;31345;51.522;10.702;2023-08-31T04:06:57;15.60;;;8.68;;
45620;SDS011;31345;51.522;10.702;2023-08-31T04:09:29;15.38;;;9.57;;
45620;SDS011;31345;51.522;10.702;2023-08-31T04:11:57;14.80;;;9.48;;
45620;SDS011;31345;51.522;10.702;2023-08-31T04:14:31;13.75;;;9.73;;
45620;SDS011;31345;51.522;10.702;2023-08-31T04:17:04;13.15;;;8.95;;
45620;SDS011;31345;51.522;10.702;2023-08-31T04:19:37;14.02;;;8.80;;
45620;SDS011;31345;51.522;10.702;2023-08-31T04:22:09;13.15;;;9.18;;
45620;SDS011;31345;51.522;10.702;2023-08-31T04:24:42;13.45;;;9.25;;
45620;SDS011;31345;51.522;10.702;2023-08-31T04:27:15;15.60;;;8.98;;
45620;SDS011;31345;51.522;10.702;2023-08-31T04:29:49;14.13;;;9.25;;
45620;SDS011;31345;51.522;10.702;2023-08-31T04:32:21;13.80;;;9.57;;
45620;SDS011;31345;51.522;10.702;2023-08-31T04:34:54;12.80;;;9.02;;
45620;SDS011;31345;51.522;10.702;2023-08-31T04:37:26;13.07;;;9.52;;
45620;SDS011;31345;51.522;10.702;2023-08-31T04:39:59;12.50;;;9.70;;
45620;SDS011;31345;51.522;10.702;2023-08-31T04:42:32;12.45;;;8.95;;
45620;SDS011;31345;51.522;10.702;2023-08-31T04:45:07;12.38;;;9.07;;
45620;SDS011;31345;51.522;10.702;2023-08-31T04:47:41;11.77;;;9.10;;
45620;SDS011;31345;51.522;10.702;2023-08-31T04:50:14;14.13;;;10.02;;
45620;SDS011;31345;51.522;10.702;2023-08-31T04:52:46;15.23;;;9.77;;
45620;SDS011;31345;51.522;10.702;2023-08-31T04:55:18;12.02;;;8.75;;
45620;SDS011;31345;51.522;10.702;2023-08-31T04:57:53;12.95;;;10.13;;
45620;SDS011;31345;51.522;10.702;2023-08-31T05:00:29;13.30;;;8.90;;
45620;SDS011;31345;51.522;10.702;2023-08-31T05:03:02;13.15;;;9.20;;
45620;SDS011;31345;51.522;10.702;2023-08-31T05:05:30;10.63;;;8.82;;
45620;SDS011;31345;51.522;10.702;2023-08-31T05:08:03;11.30;;;9.20;;
45620;SDS011;31345;51.522;10.702;2023-08-31T05:10:36;15.55;;;9.13;;
45620;SDS011;31345;51.522;10.702;2023-08-31T05:13:05;14.48;;;8.98;;
45620;SDS011;31345;51.522;10.702;2023-08-31T05:15:39;11.98;;;9.93;;
45620;SDS011;31345;51.522;10.702;2023-08-31T05:18:12;13.80;;;9.70;;
45620;SDS011;31345;51.522;10.702;2023-08-31T05:20:44;11.95;;;9.68;;
45620;SDS011;31345;51.522;10.702;2023-08-31T05:23:17;14.10;;;9.07;;
45620;SDS011;31345;51.522;10.702;2023-08-31T05:25:50;14.93;;;9.90;;
45620;SDS011;31345;51.522;10.702;2023-08-31T05:28:22;13.13;;;9.40;;
45620;SDS011;31345;51.522;10.702;2023-08-31T05:30:56;14.32;;;9.38;;
45620;SDS011;31345;51.522;10.702;2023-08-31T05:33:29;12.85;;;9.27;;
45620;SDS011;31345;51.522;10.702;2023-08-31T05:36:05;14.95;;;9.65;;
45620;SDS011;31345;51.522;10.702;2023-08-31T05:38:37;12.70;;;8.95;;
45620;SDS011;31345;51.522;10.702;2023-08-31T05:41:10;13.48;;;9.00;;
45620;SDS011;31345;51.522;10.702;2023-08-31T05:43:43;14.48;;;8.25;;
45620;SDS011;31345;51.522;10.702;2023-08-31T05:46:17;14.63;;;9.10;;
45620;SDS011;31345;51.522;10.702;2023-08-31T05:48:50;13.50;;;8.82;;
45620;SDS011;31345;51.522;10.702;2023-08-31T05:51:23;11.23;;;8.10;;
45620;SDS011;31345;51.522;10.702;2023-08-31T05:53:56;14.23;;;8.52;;
45620;SDS011;31345;51.522;10.702;2023-08-31T05:56:28;11.88;;;7.97;;
45620;SDS011;31345;51.522;10.702;2023-08-31T05:59:01;10.95;;;8.05;;
45620;SDS011;31345;51.522;10.702;2023-08-31T06:01:35;10.70;;;8.02;;
45620;SDS011;31345;51.522;10.702;2023-08-31T06:04:08;10.73;;;8.35;;
45620;SDS011;31345;51.522;10.702;2023-08-31T06:06:41;12.40;;;8.68;;
45620;SDS011;31345;51.522;10.702;2023-08-31T06:09:13;12.70;;;8.48;;
45620;SDS011;31345;51.522;10.702;2023-08-31T06:11:42;12.82;;;8.57;;
45620;SDS011;31345;51.522;10.702;2023-08-31T06:14:15;11.23;;;8.25;;
45620;SDS011;31345;51.522;10.702;2023-08-31T06:16:48;13.63;;;9.88;;
45620;SDS011;31345;51.522;10.702;2023-08-31T06:19:21;13.20;;;8.75;;
45620;SDS011;31345;51.522;10.702;2023-08-31T06:21:54;12.85;;;9.25;;
45620;SDS011;31345;51.522;10.702;2023-08-31T06:24:27;15.82;;;9.82;;
45620;SDS011;31345;51.522;10.702;2023-08-31T06:26:59;13.88;;;9.73;;
45620;SDS011;31345;51.522;10.702;2023-08-31T06:29:32;11.35;;;9.25;;
45620;SDS011;31345;51.522;10.702;2023-08-31T06:32:06;11.18;;;8.77;;
45620;SDS011;31345;51.522;10.702;2023-08-31T06:34:34;17.27;;;9.27;;
45620;SDS011;31345;51.522;10.702;2023-08-31T06:37:07;14.27;;;8.95;;
45620;SDS011;31345;51.522;10.702;2023-08-31T06:39:40;12.65;;;9.35;;
45620;SDS011;31345;51.522;10.702;2023-08-31T06:42:13;11.82;;;9.00;;
45620;SDS011;31345;51.522;10.702;2023-08-31T06:44:40;14.52;;;9.30;;
45620;SDS011;31345;51.522;10.702;2023-08-31T06:47:09;10.35;;;8.20;;
45620;SDS011;31345;51.522;10.702;2023-08-31T06:49:42;12.07;;;8.15;;
45620;SDS011;31345;51.522;10.702;2023-08-31T06:52:14;11.63;;;8.88;;
45620;SDS011;31345;51.522;10.702;2023-08-31T06:54:43;12.52;;;9.40;;
45620;SDS011;31345;51.522;10.702;2023-08-31T06:57:16;11.52;;;9.50;;
45620;SDS011;31345;51.522;10.702;2023-08-31T06:59:49;12.23;;;8.43;;
45620;SDS011;31345;51.522;10.702;2023-08-31T07:02:25;9.73;;;7.70;;
45620;SDS011;31345;51.522;10.702;2023-08-31T07:04:53;11.75;;;7.82;;
45620;SDS011;31345;51.522;10.702;2023-08-31T07:07:26;11.18;;;8.52;;
45620;SDS011;31345;51.522;10.702;2023-08-31T07:09:58;11.50;;;8.60;;
45620;SDS011;31345;51.522;10.702;2023-08-31T07:12:31;12.35;;;8.00;;
45620;SDS011;31345;51.522;10.702;2023-08-31T07:15:05;11.43;;;7.97;;
45620;SDS011;31345;51.522;10.702;2023-08-31T07:17:39;11.82;;;8.27;;
45620;SDS011;31345;51.522;10.702;2023-08-31T07:20:12;13.25;;;7.82;;
45620;SDS011;31345;51.522;10.702;2023-08-31T07:22:44;11.27;;;7.68;;
45620;SDS011;31345;51.522;10.702;2023-08-31T07:25:17;10.75;;;6.97;;
45620;SDS011;31345;51.522;10.702;2023-08-31T07:27:50;12.10;;;6.95;;
45620;SDS011;31345;51.522;10.702;2023-08-31T07:30:23;12.63;;;7.45;;
45620;SDS011;31345;51.522;10.702;2023-08-31T07:32:57;11.38;;;7.60;;
45620;SDS011;31345;51.522;10.702;2023-08-31T07:35:33;11.73;;;7.15;;
45620;SDS011;31345;51.522;10.702;2023-08-31T07:38:06;9.65;;;7.05;;
45620;SDS011;31345;51.522;10.702;2023-08-31T07:40:39;11.95;;;7.35;;
45620;SDS011;31345;51.522;10.702;2023-08-31T07:43:13;9.50;;;7.07;;
45620;SDS011;31345;51.522;10.702;2023-08-31T07:45:45;10.45;;;7.80;;
45620;SDS011;31345;51.522;10.702;2023-08-31T07:48:20;12.52;;;6.93;;
45620;SDS011;31345;51.522;10.702;2023-08-31T07:50:47;8.30;;;6.80;;
45620;SDS011;31345;51.522;10.702;2023-08-31T07:53:20;10.52;;;7.53;;
45620;SDS011;31345;51.522;10.702;2023-08-31T07:55:54;10.82;;;8.07;;
45620;SDS011;31345;51.522;10.702;2023-08-31T07:58:27;12.20;;;8.15;;
45620;SDS011;31345;51.522;10.702;2023-08-31T08:01:00;9.18;;;7.43;;
45620;SDS011;31345;51.522;10.702;2023-08-31T08:03:34;10.75;;;7.05;;
45620;SDS011;31345;51.522;10.702;2023-08-31T08:06:06;7.32;;;6.03;;
45620;SDS011;31345;51.522;10.702;2023-08-31T08:08:39;9.65;;;5.93;;
45620;SDS011;31345;51.522;10.702;2023-08-31T08:11:12;7.55;;;5.20;;
45620;SDS011;31345;51.522;10.702;2023-08-31T08:13:44;6.75;;;5.60;;
45620;SDS011;31345;51.522;10.702;2023-08-31T08:16:17;8.85;;;6.05;;
45620;SDS011;31345;51.522;10.702;2023-08-31T08:18:51;6.85;;;5.68;;
45620;SDS011;31345;51.522;10.702;2023-08-31T08:21:23;8.60;;;5.28;;
45620;SDS011;31345;51.522;10.702;2023-08-31T08:23:56;9.82;;;5.68;;
45620;SDS011;31345;51.522;10.702;2023-08-31T08:26:29;5.78;;;3.97;;
45620;SDS011;31345;51.522;10.702;2023-08-31T08:29:01;6.55;;;3.97;;
45620;SDS011;31345;51.522;10.702;2023-08-31T08:31:34;7.47;;;4.47;;
45620;SDS011;31345;51.522;10.702;2023-08-31T08:34:08;6.80;;;4.25;;
45620;SDS011;31345;51.522;10.702;2023-08-31T08:36:40;8.73;;;4.10;;
45620;SDS011;31345;51.522;10.702;2023-08-31T08:39:13;5.72;;;3.85;;
45620;SDS011;31345;51.522;10.702;2023-08-31T08:41:45;7.97;;;4.20;;
45620;SDS011;31345;51.522;10.702;2023-08-31T08:44:19;11.32;;;4.30;;
45620;SDS011;31345;51.522;10.702;2023-08-31T08:46:57;4.90;;;3.75;;
45620;SDS011;31345;51.522;10.702;2023-08-31T08:49:32;5.75;;;3.72;;
45620;SDS011;31345;51.522;10.702;2023-08-31T08:52:07;5.45;;;3.90;;
45620;SDS011;31345;51.522;10.702;2023-08-31T08:54:40;4.68;;;3.88;;
45620;SDS011;31345;51.522;10.702;2023-08-31T08:57:12;6.78;;;3.63;;
45620;SDS011;31345;51.522;10.702;2023-08-31T08:59:45;4.97;;;2.83;;
45620;SDS011;31345;51.522;10.702;2023-08-31T09:02:17;5.85;;;2.95;;
45620;SDS011;31345;51.522;10.702;2023-08-31T09:04:51;4.00;;;2.63;;
45620;SDS011;31345;51.522;10.702;2023-08-31T09:07:26;5.60;;;2.72;;
45620;SDS011;31345;51.522;10.702;2023-08-31T09:10:02;3.58;;;2.47;;
45620;SDS011;31345;51.522;10.702;2023-08-31T09:12:36;4.20;;;2.60;;
45620;SDS011;31345;51.522;10.702;2023-08-31T09:15:10;6.90;;;3.42;;
45620;SDS011;31345;51.522;10.702;2023-08-31T09:17:38;4.15;;;2.78;;
45620;SDS011;31345;51.522;10.702;2023-08-31T09:20:12;6.13;;;3.25;;
45620;SDS011;31345;51.522;10.702;2023-08-31T09:22:45;6.20;;;3.20;;
45620;SDS011;31345;51.522;10.702;2023-08-31T09:25:19;2.97;;;2.10;;
45620;SDS011;31345;51.522;10.702;2023-08-31T09:27:52;4.13;;;2.55;;
45620;SDS011;31345;51.522;10.702;2023-08-31T09:30:24;3.53;;;2.47;;
45620;SDS011;31345;51.522;10.702;2023-08-31T09:32:57;5.40;;;2.20;;
45620;SDS011;31345;51.522;10.702;2023-08-31T09:35:31;3.75;;;2.13;;
45620;SDS011;31345;51.522;10.702;2023-08-31T09:38:04;5.72;;;2.28;;
45620;SDS011;31345;51.522;10.702;2023-08-31T09:40:40;3.65;;;2.15;;
45620;SDS011;31345;51.522;10.702;2023-08-31T09:43:07;4.85;;;2.38;;
45620;SDS011;31345;51.522;10.702;2023-08-31T09:45:40;7.05;;;2.08;;
45620;SDS011;31345;51.522;10.702;2023-08-31T09:48:13;6.20;;;2.28;;
45620;SDS011;31345;51.522;10.702;2023-08-31T09:50:48;3.38;;;2.13;;
45620;SDS011;31345;51.522;10.702;2023-08-31T09:53:21;4.97;;;2.45;;
45620;SDS011;31345;51.522;10.702;2023-08-31T09:55:56;5.00;;;2.35;;
45620;SDS011;31345;51.522;10.702;2023-08-31T09:58:29;5.00;;;2.38;;
45620;SDS011;31345;51.522;10.702;2023-08-31T10:01:03;4.97;;;1.95;;
45620;SDS011;31345;51.522;10.702;2023-08-31T10:03:37;3.40;;;1.98;;
45620;SDS011;31345;51.522;10.702;2023-08-31T10:06:12;4.18;;;2.00;;
45620;SDS011;31345;51.522;10.702;2023-08-31T10:08:45;5.45;;;1.92;;
45620;SDS011;31345;51.522;10.702;2023-08-31T10:11:17;5.22;;;2.13;;
45620;SDS011;31345;51.522;10.702;2023-08-31T10:13:50;3.10;;;1.80;;
45620;SDS011;31345;51.522;10.702;2023-08-31T10:16:26;3.45;;;2.25;;
45620;SDS011;31345;51.522;10.702;2023-08-31T10:18:58;4.90;;;2.22;;
45620;SDS011;31345;51.522;10.702;2023-08-31T10:21:33;4.03;;;2.45;;
45620;SDS011;31345;51.522;10.702;2023-08-31T10:24:06;6.22;;;2.10;;
45620;SDS011;31345;51.522;10.702;2023-08-31T10:26:34;3.42;;;2.05;;
45620;SDS011;31345;51.522;10.702;2023-08-31T10:29:07;2.65;;;1.83;;
45620;SDS011;31345;51.522;10.702;2023-08-31T10:32:00;3.95;;;1.95;;
45620;SDS011;31345;51.522;10.702;2023-08-31T10:34:34;5.10;;;2.08;;
45620;SDS011;31345;51.522;10.702;2023-08-31T10:37:22;4.35;;;2.40;;
45620;SDS011;31345;51.522;10.702;2023-08-31T10:40:06;5.03;;;2.17;;
45620;SDS011;31345;51.522;10.702;2023-08-31T10:42:42;4.22;;;2.00;;
45620;SDS011;31345;51.522;10.702;2023-08-31T10:45:19;5.88;;;2.40;;
45620;SDS011;31345;51.522;10.702;2023-08-31T10:47:53;3.47;;;1.88;;
45620;SDS011;31345;51.522;10.702;2023-08-31T10:50:33;3.17;;;1.87;;
45620;SDS011;31345;51.522;10.702;2023-08-31T10:53:15;2.67;;;1.60;;
45620;SDS011;31345;51.522;10.702;2023-08-31T10:55:51;4.47;;;1.88;;
45620;SDS011;31345;51.522;10.702;2023-08-31T10:58:31;4.85;;;1.77;;
45620;SDS011;31345;51.522;10.702;2023-08-31T11:01:03;2.92;;;1.90;;
45620;SDS011;31345;51.522;10.702;2023-08-31T11:06:29;5.05;;;1.70;;
45620;SDS011;31345;51.522;10.702;2023-08-31T11:09:04;3.53;;;1.73;;
45620;SDS011;31345;51.522;10.702;2023-08-31T11:11:37;4.85;;;2.22;;
45620;SDS011;31345;51.522;10.702;2023-08-31T11:14:10;3.60;;;2.22;;
45620;SDS011;31345;51.522;10.702;2023-08-31T11:16:43;4.13;;;1.58;;
45620;SDS011;31345;51.522;10.702;2023-08-31T11:19:17;3.30;;;2.05;;
45620;SDS011;31345;51.522;10.702;2023-08-31T11:21:50;4.80;;;2.03;;
45620;SDS011;31345;51.522;10.702;2023-08-31T11:24:24;4.03;;;2.10;;
45620;SDS011;31345;51.522;10.702;2023-08-31T11:26:57;4.30;;;2.13;;
45620;SDS011;31345;51.522;10.702;2023-08-31T11:29:24;3.40;;;1.67;;
45620;SDS011;31345;51.522;10.702;2023-08-31T11:31:58;4.47;;;2.00;;
45620;SDS011;31345;51.522;10.702;2023-08-31T11:34:31;3.85;;;2.05;;
45620;SDS011;31345;51.522;10.702;2023-08-31T11:37:04;2.10;;;1.45;;
45620;SDS011;31345;51.522;10.702;2023-08-31T11:39:38;7.45;;;2.42;;
45620;SDS011;31345;51.522;10.702;2023-08-31T11:42:11;4.65;;;1.98;;
45620;SDS011;31345;51.522;10.702;2023-08-31T11:44:44;3.55;;;1.80;;
45620;SDS011;31345;51.522;10.702;2023-08-31T11:47:18;3.70;;;1.92;;
45620;SDS011;31345;51.522;10.702;2023-08-31T11:49:52;3.28;;;1.67;;
45620;SDS011;31345;51.522;10.702;2023-08-31T11:52:25;3.10;;;1.50;;
45620;SDS011;31345;51.522;10.702;2023-08-31T11:54:59;6.00;;;1.88;;
45620;SDS011;31345;51.522;10.702;2023-08-31T11:57:27;3.60;;;1.75;;
45620;SDS011;31345;51.522;10.702;2023-08-31T12:00:00;3.67;;;1.92;;
45620;SDS011;31345;51.522;10.702;2023-08-31T12:02:36;4.45;;;2.20;;
45620;SDS011;31345;51.522;10.702;2023-08-31T12:05:09;2.88;;;1.38;;
45620;SDS011;31345;51.522;10.702;2023-08-31T12:07:42;3.40;;;1.70;;
45620;SDS011;31345;51.522;10.702;2023-08-31T12:10:16;8.15;;;1.50;;
45620;SDS011;31345;51.522;10.702;2023-08-31T12:12:48;2.17;;;0.90;;
45620;SDS011;31345;51.522;10.702;2023-08-31T12:15:29;1.10;;;0.90;;
45620;SDS011;31345;51.522;10.702;2023-08-31T12:18:06;1.55;;;0.95;;
45620;SDS011;31345;51.522;10.702;2023-08-31T12:20:43;3.90;;;1.08;;
45620;SDS011;31345;51.522;10.702;2023-08-31T12:23:16;1.73;;;0.90;;
45620;SDS011;31345;51.522;10.702;2023-08-31T12:25:53;1.55;;;0.85;;
45620;SDS011;31345;51.522;10.702;2023-08-31T12:28:26;1.70;;;1.00;;
45620;SDS011;31345;51.522;10.702;2023-08-31T12:31:00;3.95;;;1.08;;
45620;SDS011;31345;51.522;10.702;2023-08-31T12:33:33;2.38;;;1.10;;
45620;SDS011;31345;51.522;10.702;2023-08-31T12:36:06;3.05;;;1.00;;
45620;SDS011;31345;51.522;10.702;2023-08-31T12:38:33;1.77;;;1.13;;
45620;SDS011;31345;51.522;10.702;2023-08-31T12:41:08;3.75;;;1.50;;
45620;SDS011;31345;51.522;10.702;2023-08-31T12:43:42;2.95;;;1.42;;
45620;SDS011;31345;51.522;10.702;2023-08-31T12:46:14;3.05;;;1.58;;
45620;SDS011;31345;51.522;10.702;2023-08-31T12:48:48;2.63;;;1.25;;
45620;SDS011;31345;51.522;10.702;2023-08-31T12:51:20;3.10;;;1.40;;
45620;SDS011;31345;51.522;10.702;2023-08-31T12:53:53;4.18;;;1.63;;
45620;SDS011;31345;51.522;10.702;2023-08-31T12:56:29;2.05;;;1.10;;
45620;SDS011;31345;51.522;10.702;2023-08-31T12:59:02;4.50;;;1.40;;
45620;SDS011;31345;51.522;10.702;2023-08-31T13:01:33;2.13;;;1.35;;
45620;SDS011;31345;51.522;10.702;2023-08-31T13:04:08;2.42;;;1.23;;
45620;SDS011;31345;51.522;10.702;2023-08-31T13:06:41;1.92;;;1.08;;
45620;SDS011;31345;51.522;10.702;2023-08-31T13:09:16;2.78;;;1.10;;
45620;SDS011;31345;51.522;10.702;2023-08-31T13:11:50;2.20;;;1.00;;
45620;SDS011;31345;51.522;10.702;2023-08-31T13:14:23;1.85;;;1.20;;
45620;SDS011;31345;51.522;10.702;2023-08-31T13:16:56;2.72;;;1.27;;
45620;SDS011;31345;51.522;10.702;2023-08-31T13:19:29;2.60;;;1.20;;
45620;SDS011;31345;51.522;10.702;2023-08-31T13:22:02;2.92;;;1.60;;
45620;SDS011;31345;51.522;10.702;2023-08-31T13:24:32;2.70;;;1.20;;
45620;SDS011;31345;51.522;10.702;2023-08-31T13:27:06;2.40;;;1.48;;
45620;SDS011;31345;51.522;10.702;2023-08-31T13:29:33;1.70;;;1.33;;
45620;SDS011;31345;51.522;10.702;2023-08-31T13:32:06;1.90;;;1.42;;
45620;SDS011;31345;51.522;10.702;2023-08-31T13:34:35;3.05;;;1.40;;
45620;SDS011;31345;51.522;10.702;2023-08-31T13:37:11;2.88;;;1.70;;
45620;SDS011;31345;51.522;10.702;2023-08-31T13:39:44;1.92;;;1.60;;
45620;SDS011;31345;51.522;10.702;2023-08-31T13:42:20;3.72;;;1.60;;
45620;SDS011;31345;51.522;10.702;2023-08-31T13:44:54;2.05;;;1.23;;
45620;SDS011;31345;51.522;10.702;2023-08-31T13:47:27;4.15;;;1.50;;
45620;SDS011;31345;51.522;10.702;2023-08-31T13:49:59;3.47;;;1.70;;
45620;SDS011;31345;51.522;10.702;2023-08-31T13:52:32;4.90;;;1.90;;
45620;SDS011;31345;51.522;10.702;2023-08-31T13:55:01;2.63;;;1.58;;
45620;SDS011;31345;51.522;10.702;2023-08-31T13:57:41;3.50;;;1.95;;
45620;SDS011;31345;51.522;10.702;2023-08-31T14:00:14;3.83;;;2.00;;
45620;SDS011;31345;51.522;10.702;2023-08-31T14:02:49;2.92;;;1.70;;
45620;SDS011;31345;51.522;10.702;2023-08-31T14:05:25;4.90;;;1.80;;
45620;SDS011;31345;51.522;10.702;2023-08-31T14:07:57;3.80;;;1.90;;
45620;SDS011;31345;51.522;10.702;2023-08-31T14:10:32;5.25;;;2.00;;
45620;SDS011;31345;51.522;10.702;2023-08-31T14:13:07;3.90;;;1.75;;
45620;SDS011;31345;51.522;10.702;2023-08-31T14:15:44;3.85;;;2.42;;
45620;SDS011;31345;51.522;10.702;2023-08-31T14:18:17;6.35;;;2.50;;
45620;SDS011;31345;51.522;10.702;2023-08-31T14:20:53;4.20;;;2.42;;
45620;SDS011;31345;51.522;10.702;2023-08-31T14:23:22;5.78;;;2.17;;
45620;SDS011;31345;51.522;10.702;2023-08-31T14:26:00;6.35;;;2.78;;
45620;SDS011;31345;51.522;10.702;2023-08-31T14:28:35;5.45;;;2.53;;
45620;SDS011;31345;51.522;10.702;2023-08-31T14:31:03;2.90;;;2.20;;
45620;SDS011;31345;51.522;10.702;2023-08-31T14:33:37;4.50;;;2.40;;
45620;SDS011;31345;51.522;10.702;2023-08-31T14:36:10;4.38;;;2.40;;
45620;SDS011;31345;51.522;10.702;2023-08-31T14:38:43;4.35;;;2.20;;
45620;SDS011;31345;51.522;10.702;2023-08-31T14:41:16;3.38;;;2.22;;
45620;SDS011;31345;51.522;10.702;2023-08-31T14:43:54;3.90;;;2.33;;
45620;SDS011;31345;51.522;10.702;2023-08-31T14:46:31;4.18;;;2.30;;
45620;SDS011;31345;51.522;10.702;2023-08-31T14:49:06;4.55;;;2.30;;
45620;SDS011;31345;51.522;10.702;2023-08-31T14:51:39;5.65;;;2.42;;
45620;SDS011;31345;51.522;10.702;2023-08-31T14:54:12;5.13;;;2.40;;
45620;SDS011;31345;51.522;10.702;2023-08-31T14:56:44;4.22;;;2.28;;
45620;SDS011;31345;51.522;10.702;2023-08-31T14:59:18;2.67;;;1.88;;
45620;SDS011;31345;51.522;10.702;2023-08-31T15:01:51;4.07;;;2.00;;
45620;SDS011;31345;51.522;10.702;2023-08-31T15:04:24;4.38;;;2.15;;
45620;SDS011;31345;51.522;10.702;2023-08-31T15:06:57;3.25;;;2.13;;
45620;SDS011;31345;51.522;10.702;2023-08-31T15:09:29;4.07;;;2.38;;
45620;SDS011;31345;51.522;10.702;2023-08-31T15:12:03;3.13;;;2.20;;
45620;SDS011;31345;51.522;10.702;2023-08-31T15:14:37;4.15;;;2.15;;
45620;SDS011;31345;51.522;10.702;2023-08-31T15:17:10;3.08;;;2.13;;
45620;SDS011;31345;51.522;10.702;2023-08-31T15:19:43;3.03;;;2.08;;